Weather at Nenana Municipal Airport

Public forecast

Using degrees Fahrenheit for public forecast. Weather courtesy of forecast.io.

Current aviation weather report (METAR) for Nenana Municipal Airport

2024/06/21 12:53 (retrieved 41 minutes ago)

PANN 211253Z AUTO 00000KT 10SM OVC120 09/08 A2985 RMK AO2 SLP112 T00940083 TSNO

Closest aviation forecast (TAF) to Nenana Municipal Airport

Closest forecast is Fairbanks International Airport, 35.1 nm (65.1 km) ENE.

2024/06/21 12:18 (retrieved 1 hour ago)

TAF TAF PAFA 211213Z 2112/2218 05004KT P6SM SCT100 FM212100 05009KT P6SM VCSH SCT080